Time;durP1;ratioP1;P1;durP2;ratioP2;P2;SDS_P1;SDS_P2;PMS_P1;PMS_P2;Temp;Humidity;BMP_temperature;BMP_pressure;BME280_temperature;BME280_humidity;BME280_pressure;Samples;Min_cycle;Max_cycle;Signal;HPM_P1;HPM_P2
2023/10/22 00:01:52;;;;;;;3.30;0.55;;;13.90;99.90;;;;;;7299130;32;20770;-56
2023/10/22 00:05:54;;;;;;;4.72;0.90;;;13.80;99.90;;;;;;7301191;32;20154;-57
2023/10/22 00:09:56;;;;;;;2.03;0.40;;;13.80;99.90;;;;;;7295909;32;20753;-56
2023/10/22 00:13:58;;;;;;;3.00;0.60;;;13.80;99.90;;;;;;7299625;32;20245;-58
2023/10/22 00:17:59;;;;;;;1.95;0.55;;;13.70;99.90;;;;;;7299088;32;20111;-56
2023/10/22 00:22:01;;;;;;;4.62;0.50;;;13.70;99.90;;;;;;7297946;32;20108;-55
2023/10/22 00:26:03;;;;;;;1.98;0.70;;;13.70;99.90;;;;;;7298609;32;20206;-55
2023/10/22 00:30:08;;;;;;;0.95;0.45;;;13.70;99.90;;;;;;7299430;32;20202;-57
2023/10/22 00:34:10;;;;;;;2.15;0.50;;;13.60;99.90;;;;;;7294091;32;20194;-57
2023/10/22 00:38:12;;;;;;;2.53;0.50;;;13.50;99.90;;;;;;7292905;32;21014;-56
2023/10/22 00:42:14;;;;;;;3.45;0.62;;;13.40;99.90;;;;;;7298705;32;20162;-55
2023/10/22 00:46:19;;;;;;;5.72;0.70;;;13.40;99.90;;;;;;7299778;32;20091;-56
2023/10/22 00:50:21;;;;;;;5.60;1.05;;;13.30;99.90;;;;;;7292208;32;20278;-56
2023/10/22 00:54:26;;;;;;;2.72;0.55;;;13.40;99.90;;;;;;7292346;32;20175;-56
2023/10/22 00:58:29;;;;;;;2.08;0.50;;;13.30;99.90;;;;;;7295336;32;20157;-57
2023/10/22 01:02:31;;;;;;;1.77;0.32;;;13.30;99.90;;;;;;7295919;32;20088;-57
2023/10/22 01:06:34;;;;;;;3.70;0.93;;;13.30;99.90;;;;;;7296422;32;20108;-55
2023/10/22 01:10:35;;;;;;;4.22;0.62;;;13.20;99.90;;;;;;7299504;32;20175;-57
2023/10/22 01:14:37;;;;;;;2.78;0.55;;;13.30;99.90;;;;;;7300841;32;20168;-56
2023/10/22 01:18:39;;;;;;;2.00;0.50;;;13.30;99.90;;;;;;7297802;32;20205;-57
2023/10/22 01:22:41;;;;;;;7.68;0.70;;;13.30;99.90;;;;;;7301494;32;20119;-56
2023/10/22 01:26:44;;;;;;;2.03;0.45;;;13.10;99.90;;;;;;7300335;32;20179;-56
2023/10/22 01:30:45;;;;;;;2.60;0.45;;;13.20;99.90;;;;;;7302274;32;20190;-56
2023/10/22 01:34:47;;;;;;;3.40;0.65;;;13.20;99.90;;;;;;7296550;32;20856;-56
2023/10/22 01:38:49;;;;;;;3.67;0.55;;;13.20;99.90;;;;;;7297559;32;20221;-57
2023/10/22 01:42:51;;;;;;;2.40;0.60;;;13.20;99.90;;;;;;7295348;32;20114;-56
2023/10/22 01:46:53;;;;;;;4.32;0.52;;;13.20;99.90;;;;;;7294745;32;20287;-56
2023/10/22 01:50:55;;;;;;;2.22;0.50;;;13.20;99.90;;;;;;7300628;32;20092;-55
2023/10/22 01:54:57;;;;;;;4.10;0.65;;;13.20;99.90;;;;;;7301488;32;20150;-57
2023/10/22 01:58:58;;;;;;;1.40;0.50;;;13.20;99.90;;;;;;7299319;32;20289;-56
2023/10/22 02:03:00;;;;;;;1.35;0.30;;;13.10;99.90;;;;;;7290907;32;20190;-55
2023/10/22 02:07:02;;;;;;;4.25;0.70;;;13.10;99.90;;;;;;7292166;32;20103;-54
2023/10/22 02:11:04;;;;;;;4.47;0.50;;;13.00;99.90;;;;;;7298312;32;20128;-55
2023/10/22 02:15:06;;;;;;;2.70;0.30;;;13.10;99.90;;;;;;7301298;32;20183;-56
2023/10/22 02:19:08;;;;;;;2.92;0.37;;;13.00;99.90;;;;;;7294383;32;20849;-56
2023/10/22 02:23:10;;;;;;;2.62;0.45;;;13.00;99.90;;;;;;7299258;32;20158;-57
2023/10/22 02:27:11;;;;;;;3.12;0.30;;;13.00;99.90;;;;;;7298479;32;20120;-56
2023/10/22 02:31:13;;;;;;;1.27;0.28;;;13.00;99.90;;;;;;7298804;32;20428;-56
2023/10/22 02:35:15;;;;;;;1.83;0.30;;;12.90;99.90;;;;;;7297210;32;20104;-56
2023/10/22 02:39:17;;;;;;;3.22;0.70;;;13.00;99.90;;;;;;7297035;32;20527;-56
2023/10/22 02:43:18;;;;;;;3.58;0.40;;;12.80;99.90;;;;;;7301577;32;20159;-56
2023/10/22 02:47:21;;;;;;;2.28;0.40;;;12.80;99.90;;;;;;7294114;32;20108;-55
2023/10/22 02:51:23;;;;;;;3.80;0.35;;;12.80;99.90;;;;;;7297180;32;20115;-55
2023/10/22 02:55:25;;;;;;;2.12;0.32;;;12.80;99.90;;;;;;7306087;32;20222;-56
2023/10/22 02:59:26;;;;;;;2.37;0.77;;;12.80;99.90;;;;;;7293790;32;20446;-57
2023/10/22 03:03:28;;;;;;;0.68;0.17;;;12.70;99.90;;;;;;7294620;32;20105;-57
2023/10/22 03:07:30;;;;;;;2.03;0.50;;;12.70;99.90;;;;;;7294125;32;20163;-56
2023/10/22 03:11:32;;;;;;;0.95;0.30;;;12.70;99.90;;;;;;7303700;32;20464;-56
2023/10/22 03:15:34;;;;;;;2.45;0.20;;;12.70;99.90;;;;;;7300477;32;20235;-55
2023/10/22 03:19:36;;;;;;;2.37;0.30;;;12.60;99.90;;;;;;7301911;32;20129;-57
2023/10/22 03:23:41;;;;;;;1.75;0.10;;;12.70;99.90;;;;;;7296727;32;20239;-56
2023/10/22 03:27:43;;;;;;;2.40;0.37;;;12.70;99.90;;;;;;7301081;32;20144;-55
2023/10/22 03:31:45;;;;;;;1.85;0.20;;;12.70;99.90;;;;;;7296856;32;20108;-54
2023/10/22 03:35:48;;;;;;;2.40;0.30;;;12.70;99.90;;;;;;7301512;32;20139;-55
2023/10/22 03:39:49;;;;;;;1.35;0.30;;;12.70;99.90;;;;;;7300055;32;20100;-56
2023/10/22 03:43:51;;;;;;;1.00;0.20;;;12.70;99.90;;;;;;7300925;32;20226;-56
2023/10/22 03:47:53;;;;;;;1.02;0.20;;;12.60;99.90;;;;;;7302097;32;20206;-55
2023/10/22 03:51:55;;;;;;;0.85;0.30;;;12.60;99.90;;;;;;7297631;32;20164;-56
2023/10/22 03:55:56;;;;;;;2.72;0.30;;;12.50;99.90;;;;;;7300419;32;20199;-57
2023/10/22 03:59:58;;;;;;;1.15;0.20;;;12.60;99.90;;;;;;7296055;32;20273;-56
2023/10/22 04:04:00;;;;;;;1.27;0.37;;;12.50;99.90;;;;;;7298585;32;20100;-55
2023/10/22 04:08:02;;;;;;;1.17;0.30;;;12.50;99.90;;;;;;7295708;32;20101;-56
2023/10/22 04:12:04;;;;;;;2.58;0.40;;;12.50;99.90;;;;;;7299019;32;20116;-56
2023/10/22 04:16:06;;;;;;;1.62;0.30;;;12.50;99.90;;;;;;7299827;32;20142;-56
2023/10/22 04:20:08;;;;;;;0.70;0.20;;;12.50;99.90;;;;;;7286909;32;20349;-56
2023/10/22 04:24:10;;;;;;;0.98;0.10;;;12.60;99.90;;;;;;7295079;32;20195;-55
2023/10/22 04:28:13;;;;;;;1.17;0.20;;;12.60;99.90;;;;;;7297607;32;20142;-55
2023/10/22 04:32:16;;;;;;;1.42;0.20;;;12.60;99.90;;;;;;7296037;32;20601;-55
2023/10/22 04:36:21;;;;;;;1.08;0.30;;;12.50;99.90;;;;;;7299687;32;20111;-56
2023/10/22 04:40:25;;;;;;;1.65;0.20;;;12.50;99.90;;;;;;7291615;32;20136;-55
2023/10/22 04:44:26;;;;;;;2.33;0.30;;;12.60;99.90;;;;;;7297418;32;20188;-55
2023/10/22 04:48:28;;;;;;;1.80;0.30;;;12.60;99.90;;;;;;7301498;32;20139;-55
2023/10/22 04:52:31;;;;;;;0.40;0.20;;;12.60;99.90;;;;;;7290823;32;20215;-55
2023/10/22 04:56:34;;;;;;;6.50;0.75;;;12.60;99.90;;;;;;7296683;32;20099;-56
2023/10/22 05:00:36;;;;;;;1.15;0.20;;;12.70;99.90;;;;;;7291720;32;20224;-55
2023/10/22 05:04:37;;;;;;;1.58;0.28;;;12.60;99.90;;;;;;7290141;32;20160;-56
2023/10/22 05:08:40;;;;;;;0.93;0.30;;;12.60;99.90;;;;;;7290965;32;20151;-55
2023/10/22 05:12:42;;;;;;;1.30;0.20;;;12.50;99.90;;;;;;7298719;32;20104;-57
2023/10/22 05:16:44;;;;;;;0.60;0.10;;;12.50;99.90;;;;;;7293338;32;20217;-55
2023/10/22 05:20:45;;;;;;;1.20;0.20;;;12.50;99.90;;;;;;7292140;32;20463;-56
2023/10/22 05:24:48;;;;;;;2.12;0.22;;;12.40;99.90;;;;;;7297767;32;20244;-56
2023/10/22 05:28:50;;;;;;;0.90;0.20;;;12.50;99.90;;;;;;7297110;32;20234;-55
2023/10/22 05:32:52;;;;;;;1.20;0.10;;;12.50;99.90;;;;;;7293611;32;20222;-55
2023/10/22 05:36:53;;;;;;;5.95;0.62;;;12.40;99.90;;;;;;7292679;32;20104;-56
2023/10/22 05:40:55;;;;;;;0.62;0.08;;;12.40;99.90;;;;;;7294208;32;20096;-56
2023/10/22 05:45:00;;;;;;;1.45;0.17;;;12.50;99.90;;;;;;7294759;32;20735;-57
2023/10/22 05:49:03;;;;;;;0.32;0.13;;;12.40;99.90;;;;;;7293148;32;20786;-56
2023/10/22 05:53:05;;;;;;;2.10;0.35;;;12.50;99.90;;;;;;7293880;32;20179;-55
2023/10/22 05:57:07;;;;;;;1.00;0.20;;;12.40;99.90;;;;;;7292960;32;20187;-56
2023/10/22 06:01:10;;;;;;;1.50;0.20;;;12.40;99.90;;;;;;7294054;32;20217;-57
2023/10/22 06:05:14;;;;;;;1.80;0.20;;;12.40;99.90;;;;;;7293222;32;20104;-56
2023/10/22 06:09:24;;;;;;;1.35;0.32;;;12.30;99.90;;;;;;7294088;32;20122;-56
2023/10/22 06:13:26;;;;;;;2.45;0.30;;;12.30;99.90;;;;;;7288753;32;20607;-56
2023/10/22 06:17:28;;;;;;;0.40;0.13;;;12.30;99.90;;;;;;7297771;32;20128;-58
2023/10/22 06:21:30;;;;;;;0.60;0.25;;;12.20;99.90;;;;;;7297586;32;20153;-57
2023/10/22 06:25:32;;;;;;;1.50;0.20;;;12.20;99.90;;;;;;7297394;32;20173;-55
2023/10/22 06:29:34;;;;;;;1.67;0.20;;;12.20;99.90;;;;;;7301166;32;20112;-56
2023/10/22 06:33:37;;;;;;;2.62;0.37;;;12.10;99.90;;;;;;7301433;32;20227;-56
2023/10/22 06:37:39;;;;;;;0.93;0.20;;;12.10;99.90;;;;;;7300967;32;20119;-57
2023/10/22 06:41:41;;;;;;;1.70;0.10;;;12.10;99.90;;;;;;7293949;32;20714;-57
2023/10/22 06:45:42;;;;;;;0.20;0.10;;;12.20;99.90;;;;;;7293825;32;20230;-56
2023/10/22 06:49:44;;;;;;;0.57;0.10;;;12.20;99.90;;;;;;7298214;32;20734;-56
2023/10/22 06:53:46;;;;;;;1.30;0.20;;;12.20;99.90;;;;;;7302552;32;20141;-57
2023/10/22 06:57:49;;;;;;;0.88;0.20;;;12.20;99.90;;;;;;7301737;32;20100;-56
2023/10/22 07:01:51;;;;;;;0.73;0.22;;;12.20;99.90;;;;;;7300549;32;20321;-56
2023/10/22 07:05:52;;;;;;;1.55;0.20;;;12.20;99.90;;;;;;7300206;32;20104;-58
2023/10/22 07:09:55;;;;;;;0.77;0.40;;;12.20;99.90;;;;;;7293193;32;20095;-56
2023/10/22 07:13:57;;;;;;;1.67;0.40;;;12.20;99.90;;;;;;7298505;32;20575;-56
2023/10/22 07:17:59;;;;;;;3.97;0.50;;;12.20;99.90;;;;;;7301378;32;20095;-57
2023/10/22 07:22:01;;;;;;;1.25;0.50;;;12.20;99.90;;;;;;7300826;32;20218;-57
2023/10/22 07:26:03;;;;;;;2.78;0.50;;;12.10;99.90;;;;;;7297950;32;20173;-58
2023/10/22 07:30:06;;;;;;;1.67;0.60;;;12.40;99.90;;;;;;7301017;32;20104;-57
2023/10/22 07:34:08;;;;;;;1.05;0.30;;;12.30;99.90;;;;;;7295606;32;20115;-56
2023/10/22 07:38:09;;;;;;;2.08;0.40;;;12.30;99.90;;;;;;7296502;32;20206;-56
2023/10/22 07:42:11;;;;;;;2.75;0.47;;;12.30;99.90;;;;;;7297065;32;20316;-56
2023/10/22 07:46:15;;;;;;;1.35;0.30;;;12.30;99.90;;;;;;7301551;32;20122;-56
2023/10/22 07:50:17;;;;;;;1.92;0.50;;;12.30;99.90;;;;;;7298734;32;20517;-56
2023/10/22 07:54:18;;;;;;;0.98;0.40;;;12.40;99.90;;;;;;7298285;32;20260;-58
2023/10/22 07:58:20;;;;;;;2.30;0.45;;;12.40;99.90;;;;;;7298565;32;20158;-58
2023/10/22 08:02:26;;;;;;;1.40;0.70;;;12.40;99.90;;;;;;7298481;32;20096;-57
2023/10/22 08:06:27;;;;;;;2.60;0.55;;;12.40;99.90;;;;;;7299176;32;20127;-56
2023/10/22 08:10:29;;;;;;;1.95;0.57;;;12.50;99.90;;;;;;7293539;32;20112;-57
2023/10/22 08:14:31;;;;;;;1.02;0.30;;;12.50;99.90;;;;;;7294288;32;20979;-58
2023/10/22 08:18:33;;;;;;;1.95;0.40;;;12.60;99.90;;;;;;7293347;32;20202;-58
2023/10/22 08:22:36;;;;;;;1.20;0.40;;;12.60;99.90;;;;;;7296657;32;20120;-57
2023/10/22 08:26:38;;;;;;;0.90;0.40;;;12.60;99.90;;;;;;7302453;32;20188;-56
2023/10/22 08:30:47;;;;;;;2.53;0.40;;;12.70;99.90;;;;;;7291792;32;20123;-58
2023/10/22 08:34:48;;;;;;;3.42;0.40;;;12.80;99.90;;;;;;7298282;32;20096;-57
2023/10/22 08:38:50;;;;;;;2.83;0.50;;;12.90;99.90;;;;;;7290856;32;20124;-56
2023/10/22 08:42:53;;;;;;;2.65;0.50;;;13.00;99.90;;;;;;7294357;32;20127;-57
2023/10/22 08:46:55;;;;;;;2.70;0.57;;;13.10;99.90;;;;;;7294235;32;20164;-57
2023/10/22 08:51:00;;;;;;;4.65;2.58;;;13.20;99.90;;;;;;7297308;32;20100;-57
2023/10/22 08:55:02;;;;;;;0.68;0.35;;;13.20;99.90;;;;;;7294334;32;20264;-56
2023/10/22 08:59:05;;;;;;;3.22;0.70;;;13.20;99.90;;;;;;7295464;32;20258;-56
2023/10/22 09:03:07;;;;;;;2.05;0.45;;;13.20;99.90;;;;;;7289498;32;20174;-56
2023/10/22 09:07:09;;;;;;;0.60;0.30;;;13.30;99.90;;;;;;7300207;32;20122;-56
2023/10/22 09:11:20;;;;;;;2.70;0.55;;;13.40;99.90;;;;;;7296190;32;20234;-57
2023/10/22 09:15:22;;;;;;;0.40;0.37;;;13.50;99.90;;;;;;7299856;32;20128;-56
2023/10/22 09:19:36;;;;;;;0.70;0.40;;;13.60;99.90;;;;;;7298903;32;20175;-56
2023/10/22 09:23:37;;;;;;;1.55;0.30;;;13.70;99.90;;;;;;7292109;32;20103;-56
2023/10/22 09:27:43;;;;;;;1.98;0.30;;;13.80;99.90;;;;;;7289223;32;20139;-55
2023/10/22 09:31:52;;;;;;;1.45;0.40;;;13.90;99.90;;;;;;7294908;32;20182;-55
2023/10/22 09:36:08;;;;;;;1.67;0.55;;;13.80;99.90;;;;;;7298406;32;20183;-56
2023/10/22 09:40:22;;;;;;;2.37;0.40;;;13.80;99.90;;;;;;7286777;32;22037;-56
2023/10/22 09:44:26;;;;;;;3.15;0.52;;;13.70;99.90;;;;;;7297250;32;20489;-58
2023/10/22 09:48:33;;;;;;;1.65;0.50;;;13.70;99.90;;;;;;7291812;32;20100;-57
2023/10/22 09:52:38;;;;;;;1.73;0.50;;;13.70;99.90;;;;;;7285285;32;20175;-56
2023/10/22 09:56:51;;;;;;;2.70;0.50;;;13.60;99.90;;;;;;7286160;32;20126;-55
2023/10/22 10:00:54;;;;;;;1.60;0.50;;;13.50;99.90;;;;;;7296033;32;20130;-56
2023/10/22 10:04:57;;;;;;;2.62;0.57;;;13.50;99.90;;;;;;7297770;32;20445;-56
2023/10/22 10:09:03;;;;;;;2.78;0.60;;;13.50;99.90;;;;;;7294534;32;20136;-56
2023/10/22 10:13:05;;;;;;;3.03;0.50;;;13.60;99.90;;;;;;7302045;32;20151;-56
2023/10/22 10:17:09;;;;;;;2.25;0.80;;;13.60;99.90;;;;;;7299593;32;20750;-56
2023/10/22 10:21:47;;;;;;;3.58;0.70;;;13.60;99.90;;;;;;7312498;32;20100;-56
2023/10/22 10:25:49;;;;;;;2.75;0.50;;;13.70;99.90;;;;;;7250430;32;20130;-56
2023/10/22 10:30:15;;;;;;;1.37;0.60;;;13.70;99.90;;;;;;7297889;32;20207;-57
2023/10/22 10:34:35;;;;;;;1.87;0.70;;;13.80;99.90;;;;;;7301160;32;20104;-58
2023/10/22 10:38:38;;;;;;;4.75;0.82;;;13.80;99.90;;;;;;7300175;32;20449;-57
2023/10/22 10:42:39;;;;;;;3.50;0.95;;;14.00;99.90;;;;;;7295819;32;20168;-56
2023/10/22 10:46:41;;;;;;;0.98;0.60;;;14.00;99.90;;;;;;7286927;32;20126;-56
2023/10/22 10:50:47;;;;;;;5.32;0.60;;;14.00;99.90;;;;;;7295433;32;20175;-56
2023/10/22 10:55:27;;;;;;;1.02;0.70;;;14.10;99.90;;;;;;7304277;32;20172;-56
2023/10/22 10:59:35;;;;;;;1.33;0.52;;;14.00;99.90;;;;;;7296329;32;20124;-56
2023/10/22 11:03:38;;;;;;;3.08;0.75;;;13.90;99.90;;;;;;7296899;32;20122;-55
2023/10/22 11:07:43;;;;;;;1.50;0.60;;;13.90;99.90;;;;;;7298007;32;20183;-58
2023/10/22 11:11:59;;;;;;;4.18;0.85;;;14.00;99.90;;;;;;7293903;32;20104;-55
2023/10/22 11:16:04;;;;;;;2.22;0.70;;;14.00;99.90;;;;;;7293281;32;20099;-57
2023/10/22 11:20:06;;;;;;;1.23;0.60;;;14.10;99.90;;;;;;7299538;32;20191;-55
2023/10/22 11:24:08;;;;;;;3.33;0.70;;;14.20;99.90;;;;;;7292713;32;20095;-56
2023/10/22 11:28:11;;;;;;;1.17;0.47;;;14.20;99.90;;;;;;7299611;32;20108;-56
2023/10/22 11:32:17;;;;;;;1.02;0.60;;;14.40;99.90;;;;;;7299085;32;20191;-56
2023/10/22 11:36:23;;;;;;;2.50;0.62;;;14.50;99.90;;;;;;7293458;32;20128;-56
2023/10/22 11:40:29;;;;;;;1.77;0.65;;;14.60;99.90;;;;;;7299475;32;20616;-55
2023/10/22 11:44:33;;;;;;;1.50;0.40;;;14.60;99.90;;;;;;7293918;32;20246;-57
2023/10/22 11:48:44;;;;;;;2.50;0.60;;;14.50;99.90;;;;;;7293200;32;20147;-58
2023/10/22 11:52:46;;;;;;;4.07;0.70;;;14.60;99.90;;;;;;7293609;32;20428;-58
2023/10/22 11:56:48;;;;;;;1.77;0.60;;;14.60;99.90;;;;;;7294493;32;20119;-58
2023/10/22 12:00:50;;;;;;;1.80;0.70;;;14.90;99.90;;;;;;7297140;32;20096;-56
2023/10/22 12:04:51;;;;;;;2.47;0.60;;;15.20;99.90;;;;;;7295107;32;20278;-63
2023/10/22 12:08:53;;;;;;;1.02;0.35;;;15.30;99.90;;;;;;7298833;32;20104;-64
2023/10/22 12:12:55;;;;;;;2.83;0.60;;;15.20;99.90;;;;;;7291351;32;20108;-61
2023/10/22 12:16:57;;;;;;;3.85;0.77;;;15.30;99.90;;;;;;7299961;32;20204;-56
2023/10/22 12:20:59;;;;;;;3.87;0.80;;;15.20;99.90;;;;;;7301228;32;20108;-56
2023/10/22 12:25:03;;;;;;;1.87;0.45;;;15.20;99.90;;;;;;7290704;32;20122;-56
2023/10/22 12:29:05;;;;;;;2.35;0.50;;;15.30;99.90;;;;;;7262345;32;20527;-56
2023/10/22 12:33:10;;;;;;;1.90;0.40;;;15.20;99.90;;;;;;7266361;32;20231;-57
2023/10/22 12:37:12;;;;;;;1.48;0.45;;;15.20;99.90;;;;;;7250419;32;20805;-56
2023/10/22 12:41:14;;;;;;;2.30;0.70;;;15.20;99.90;;;;;;7301522;32;20112;-57
2023/10/22 12:45:16;;;;;;;1.92;0.60;;;15.10;99.90;;;;;;7302934;32;20179;-56
2023/10/22 12:49:18;;;;;;;1.33;0.50;;;14.90;99.90;;;;;;7300627;32;20100;-57
2023/10/22 12:53:20;;;;;;;1.95;0.40;;;14.90;99.90;;;;;;7301949;32;20514;-56
2023/10/22 12:57:22;;;;;;;2.10;0.40;;;14.80;99.90;;;;;;7299933;32;20225;-57
2023/10/22 13:01:24;;;;;;;1.60;0.50;;;14.80;99.90;;;;;;7300909;32;20104;-56
2023/10/22 13:05:26;;;;;;;1.58;0.43;;;14.70;99.90;;;;;;7282910;32;20171;-57
2023/10/22 13:09:28;;;;;;;1.77;0.45;;;14.70;99.90;;;;;;7234600;32;20099;-57
2023/10/22 13:13:30;;;;;;;1.73;0.47;;;14.80;99.90;;;;;;7290585;32;20137;-57
2023/10/22 13:17:35;;;;;;;1.77;0.43;;;14.80;99.90;;;;;;7290693;32;20266;-57
2023/10/22 13:21:37;;;;;;;0.65;0.30;;;14.80;99.90;;;;;;7290201;32;20498;-56
2023/10/22 13:25:39;;;;;;;0.55;0.30;;;14.80;99.90;;;;;;7286598;32;20218;-56
2023/10/22 13:29:41;;;;;;;0.98;0.30;;;14.70;99.90;;;;;;7292271;32;20226;-56
2023/10/22 13:33:43;;;;;;;1.17;0.40;;;14.60;99.90;;;;;;7293198;32;20104;-57
2023/10/22 13:37:44;;;;;;;0.52;0.25;;;14.60;99.90;;;;;;7291991;32;20510;-55
2023/10/22 13:41:46;;;;;;;0.75;0.20;;;14.50;99.90;;;;;;7286728;32;20490;-56
2023/10/22 13:45:48;;;;;;;0.77;0.30;;;14.30;99.90;;;;;;7281975;32;20875;-59
2023/10/22 13:49:50;;;;;;;1.50;0.50;;;14.30;99.90;;;;;;7291707;32;20218;-58
2023/10/22 13:53:52;;;;;;;1.60;0.60;;;14.10;99.90;;;;;;7266248;32;20191;-55
2023/10/22 13:57:55;;;;;;;0.75;0.50;;;13.90;99.90;;;;;;7167311;32;20202;-57
2023/10/22 14:01:56;;;;;;;1.10;0.43;;;13.80;99.90;;;;;;7239052;32;20116;-56
2023/10/22 14:05:58;;;;;;;1.35;0.40;;;13.80;99.90;;;;;;7287107;32;20774;-56
2023/10/22 14:10:00;;;;;;;1.35;0.32;;;14.00;99.90;;;;;;7293606;32;20111;-56
2023/10/22 14:14:02;;;;;;;0.60;0.40;;;14.00;99.90;;;;;;7292038;32;20252;-56
2023/10/22 14:18:04;;;;;;;0.35;0.20;;;14.10;99.90;;;;;;7244309;32;20149;-56
2023/10/22 14:22:06;;;;;;;1.30;0.40;;;14.00;99.90;;;;;;7288729;32;20797;-57
2023/10/22 14:26:08;;;;;;;0.60;0.43;;;14.00;99.90;;;;;;7289898;32;20165;-56
2023/10/22 14:30:11;;;;;;;1.50;0.40;;;14.00;99.90;;;;;;7289779;32;20219;-56
2023/10/22 14:34:17;;;;;;;0.62;0.22;;;14.10;99.90;;;;;;7290816;32;20273;-56
2023/10/22 14:38:26;;;;;;;0.47;0.30;;;14.00;99.90;;;;;;7290433;32;20198;-56
2023/10/22 14:42:28;;;;;;;1.35;0.40;;;14.00;99.90;;;;;;7289086;32;20119;-56
2023/10/22 14:46:31;;;;;;;1.40;0.40;;;14.00;99.90;;;;;;7288232;32;20172;-57
2023/10/22 14:50:33;;;;;;;1.33;0.82;;;14.00;99.90;;;;;;7294452;32;20222;-56
2023/10/22 14:54:34;;;;;;;2.35;1.10;;;14.00;99.90;;;;;;7298472;32;20127;-58
2023/10/22 14:58:36;;;;;;;2.08;1.08;;;14.00;99.90;;;;;;7294630;32;20139;-58
2023/10/22 15:02:40;;;;;;;1.92;1.10;;;14.00;99.90;;;;;;7259187;32;20230;-56
2023/10/22 15:06:42;;;;;;;1.55;1.02;;;14.00;99.90;;;;;;7290119;32;20116;-56
2023/10/22 15:10:45;;;;;;;1.70;1.08;;;13.90;99.90;;;;;;7265885;32;20142;-57
2023/10/22 15:14:47;;;;;;;3.37;1.05;;;13.90;99.90;;;;;;7281966;32;20108;-56
2023/10/22 15:18:49;;;;;;;2.25;0.98;;;13.80;99.90;;;;;;7283141;32;20100;-56
2023/10/22 15:22:52;;;;;;;2.45;1.23;;;13.80;99.90;;;;;;7295847;32;20131;-57
2023/10/22 15:26:57;;;;;;;1.65;1.00;;;13.80;99.90;;;;;;7290504;32;20132;-56
2023/10/22 15:31:00;;;;;;;1.95;1.17;;;13.80;99.90;;;;;;7287606;32;20123;-57
2023/10/22 15:35:02;;;;;;;3.20;1.45;;;13.70;99.90;;;;;;7293879;32;20193;-56
2023/10/22 15:39:04;;;;;;;2.00;1.55;;;13.70;99.90;;;;;;7294023;32;20198;-56
2023/10/22 15:43:06;;;;;;;5.70;1.80;;;13.60;99.90;;;;;;7288858;32;20116;-56
2023/10/22 15:47:08;;;;;;;5.55;1.70;;;13.50;99.90;;;;;;7291697;32;20116;-58
2023/10/22 15:51:10;;;;;;;2.60;1.80;;;13.40;99.90;;;;;;7295110;32;20108;-58
2023/10/22 15:55:11;;;;;;;3.42;1.95;;;13.40;99.90;;;;;;7297278;32;20142;-56
2023/10/22 15:59:13;;;;;;;2.60;1.58;;;13.40;99.90;;;;;;7298408;32;20262;-58
2023/10/22 16:03:15;;;;;;;3.10;2.00;;;13.40;99.90;;;;;;7302517;32;20108;-56
2023/10/22 16:07:21;;;;;;;3.28;1.85;;;13.20;99.90;;;;;;7303659;32;20138;-57
2023/10/22 16:11:23;;;;;;;2.45;1.80;;;13.10;99.90;;;;;;7277492;32;20167;-57
2023/10/22 16:15:25;;;;;;;4.18;2.00;;;13.10;99.90;;;;;;7266316;32;20132;-56
2023/10/22 16:19:27;;;;;;;4.12;2.22;;;13.00;99.90;;;;;;7286366;32;20424;-56
2023/10/22 16:23:29;;;;;;;3.15;2.22;;;13.00;99.90;;;;;;7285236;32;20112;-56
2023/10/22 16:27:31;;;;;;;3.85;2.58;;;13.00;99.90;;;;;;7292240;32;20108;-56
2023/10/22 16:31:33;;;;;;;4.03;2.40;;;12.90;99.90;;;;;;7291963;32;20160;-56
2023/10/22 16:35:35;;;;;;;4.00;2.50;;;12.80;99.90;;;;;;7286470;32;20221;-56
2023/10/22 16:39:36;;;;;;;4.80;2.70;;;12.70;99.90;;;;;;7239416;32;20116;-55
2023/10/22 16:43:38;;;;;;;2.90;2.08;;;12.60;99.90;;;;;;7256371;32;20139;-56
2023/10/22 16:47:40;;;;;;;4.37;3.30;;;12.50;99.90;;;;;;7300242;32;20138;-56
2023/10/22 16:51:42;;;;;;;5.00;3.10;;;12.50;99.90;;;;;;7300949;32;20285;-56
2023/10/22 16:55:44;;;;;;;4.30;3.30;;;12.50;99.90;;;;;;7288653;32;20178;-55
2023/10/22 16:59:46;;;;;;;5.18;3.65;;;12.50;99.90;;;;;;7300551;32;20104;-55
2023/10/22 17:03:49;;;;;;;4.85;3.40;;;12.40;99.90;;;;;;7302007;32;20469;-58
2023/10/22 17:07:51;;;;;;;6.20;3.70;;;12.40;99.90;;;;;;7299220;32;20143;-56
2023/10/22 17:11:53;;;;;;;4.10;3.15;;;12.40;99.90;;;;;;7236115;32;20333;-57
2023/10/22 17:15:59;;;;;;;4.80;2.90;;;12.50;99.90;;;;;;7296854;32;20103;-57
2023/10/22 17:20:02;;;;;;;4.47;2.80;;;12.40;99.90;;;;;;7292811;32;20191;-58
2023/10/22 17:24:05;;;;;;;6.12;3.35;;;12.40;99.90;;;;;;7296287;32;20222;-56
2023/10/22 17:28:06;;;;;;;3.95;3.00;;;12.40;99.90;;;;;;7166955;32;20250;-56
2023/10/22 17:32:08;;;;;;;4.18;3.12;;;12.30;99.90;;;;;;7160230;32;20350;-56
2023/10/22 17:36:10;;;;;;;3.90;3.03;;;12.40;99.90;;;;;;7233465;32;20100;-56
2023/10/22 17:40:11;;;;;;;5.68;3.20;;;12.40;99.90;;;;;;7298158;32;20135;-57
2023/10/22 17:44:13;;;;;;;3.97;2.85;;;12.40;99.90;;;;;;7301557;32;20107;-56
2023/10/22 17:48:15;;;;;;;4.50;3.33;;;12.40;99.90;;;;;;7296788;32;20144;-56
2023/10/22 17:52:17;;;;;;;5.00;3.35;;;12.40;99.90;;;;;;7298000;32;20141;-56
2023/10/22 17:56:19;;;;;;;7.07;3.12;;;12.50;99.90;;;;;;7301322;32;20108;-56
2023/10/22 18:00:22;;;;;;;5.57;3.22;;;12.60;99.90;;;;;;7297943;32;20165;-55
2023/10/22 18:04:24;;;;;;;4.15;3.28;;;12.50;99.90;;;;;;7268333;32;20253;-55
2023/10/22 18:08:26;;;;;;;5.30;3.40;;;12.50;99.90;;;;;;7297001;32;20243;-57
2023/10/22 18:12:28;;;;;;;4.68;2.75;;;12.50;99.90;;;;;;7308816;32;20112;-59
2023/10/22 18:16:32;;;;;;;3.70;2.70;;;12.50;99.90;;;;;;7285178;32;20111;-59
2023/10/22 18:20:34;;;;;;;4.47;3.08;;;12.50;99.90;;;;;;7295681;32;20202;-58
2023/10/22 18:24:37;;;;;;;4.20;2.80;;;12.50;99.90;;;;;;7272983;32;20135;-55
2023/10/22 18:28:40;;;;;;;3.20;2.67;;;12.50;99.90;;;;;;7301308;32;20191;-55
2023/10/22 18:32:43;;;;;;;4.80;2.65;;;12.40;99.90;;;;;;7304706;32;20115;-58
2023/10/22 18:36:44;;;;;;;4.53;2.80;;;12.50;99.90;;;;;;7305511;32;20304;-56
2023/10/22 18:40:46;;;;;;;5.97;3.00;;;12.40;99.90;;;;;;7270571;32;20615;-58
2023/10/22 18:44:49;;;;;;;4.45;2.67;;;12.50;99.90;;;;;;7303048;32;20120;-57
2023/10/22 18:48:52;;;;;;;4.03;2.60;;;12.50;99.90;;;;;;7266621;32;20238;-55
2023/10/22 18:52:54;;;;;;;4.37;2.80;;;12.30;99.90;;;;;;7248557;32;20249;-55
2023/10/22 18:56:56;;;;;;;3.37;2.15;;;12.20;99.90;;;;;;7257717;32;20136;-58
2023/10/22 19:00:58;;;;;;;3.33;2.50;;;12.10;99.90;;;;;;7291449;32;20196;-56
2023/10/22 19:05:01;;;;;;;5.28;2.87;;;12.10;99.90;;;;;;7290534;32;20158;-56
2023/10/22 19:09:04;;;;;;;5.22;3.00;;;12.00;99.90;;;;;;7288255;32;20722;-56
2023/10/22 19:13:07;;;;;;;4.05;2.70;;;12.00;99.90;;;;;;7294213;32;20176;-56
2023/10/22 19:17:09;;;;;;;5.43;2.67;;;11.90;99.90;;;;;;7291309;32;20252;-56
2023/10/22 19:21:11;;;;;;;5.37;3.10;;;11.90;99.90;;;;;;7290590;32;20221;-57
2023/10/22 19:25:13;;;;;;;5.53;3.05;;;12.00;99.90;;;;;;7290443;32;20566;-57
2023/10/22 19:29:14;;;;;;;3.83;2.70;;;12.20;99.90;;;;;;7291590;32;20569;-56
2023/10/22 19:33:17;;;;;;;6.50;2.70;;;12.20;99.90;;;;;;7286913;32;20119;-56
2023/10/22 19:37:19;;;;;;;8.18;2.53;;;12.30;99.90;;;;;;7293246;32;20111;-58
2023/10/22 19:41:21;;;;;;;3.47;2.40;;;12.20;99.90;;;;;;7288965;32;20700;-56
2023/10/22 19:45:22;;;;;;;3.67;2.30;;;12.30;99.90;;;;;;7228421;32;20215;-56
2023/10/22 19:49:24;;;;;;;5.37;2.15;;;12.30;99.90;;;;;;7294205;32;20326;-56
2023/10/22 19:53:27;;;;;;;2.97;1.80;;;12.30;99.90;;;;;;7291741;32;20259;-56
2023/10/22 19:57:29;;;;;;;4.18;2.10;;;12.30;99.90;;;;;;7289907;32;20124;-57
2023/10/22 20:01:30;;;;;;;2.92;1.92;;;12.30;99.90;;;;;;7278596;32;20550;-58
2023/10/22 20:05:33;;;;;;;3.20;2.12;;;12.40;99.90;;;;;;7300435;32;20653;-57
2023/10/22 20:09:35;;;;;;;4.22;2.00;;;12.40;99.90;;;;;;7143373;32;21344;-58
2023/10/22 20:13:39;;;;;;;4.30;1.83;;;12.50;99.90;;;;;;7197543;32;20138;-56
2023/10/22 20:17:41;;;;;;;4.35;2.20;;;12.50;99.90;;;;;;7258610;32;20120;-56
2023/10/22 20:21:42;;;;;;;3.97;2.00;;;12.60;99.90;;;;;;7293112;32;20225;-56
2023/10/22 20:25:45;;;;;;;4.10;2.30;;;12.60;99.90;;;;;;7255683;32;20246;-58
2023/10/22 20:29:46;;;;;;;4.22;2.42;;;12.60;99.90;;;;;;7290511;32;20139;-57
2023/10/22 20:33:48;;;;;;;8.60;1.73;;;12.60;99.90;;;;;;7288940;32;20167;-57
2023/10/22 20:37:50;;;;;;;4.90;2.12;;;12.50;99.90;;;;;;7288892;32;20113;-57
2023/10/22 20:41:52;;;;;;;2.45;1.73;;;12.50;99.90;;;;;;7287306;32;20108;-57
2023/10/22 20:46:04;;;;;;;2.67;1.70;;;12.50;99.90;;;;;;7285485;32;20100;-57
2023/10/22 20:50:06;;;;;;;3.75;1.75;;;12.40;99.90;;;;;;7282934;32;20145;-56
2023/10/22 20:54:08;;;;;;;3.92;1.80;;;12.40;99.90;;;;;;7291709;32;20671;-57
2023/10/22 20:58:09;;;;;;;4.50;1.75;;;12.40;99.90;;;;;;7285570;32;20111;-57
2023/10/22 21:02:11;;;;;;;4.10;1.62;;;12.40;99.90;;;;;;7287782;32;20214;-57
2023/10/22 21:06:13;;;;;;;4.37;1.50;;;12.50;99.90;;;;;;7252886;32;20123;-56